sensor_id;sensor_type;location;lat;lon;timestamp;P1;durP1;ratioP1;P2;durP2;ratioP2
30872;SDS011;17579;42.690;2.586;2023-01-15T00:01:27;7.45;;;4.20;;
30872;SDS011;17579;42.690;2.586;2023-01-15T00:03:55;7.05;;;3.45;;
30872;SDS011;17579;42.690;2.586;2023-01-15T00:06:22;9.05;;;3.70;;
30872;SDS011;17579;42.690;2.586;2023-01-15T00:08:49;7.00;;;3.53;;
30872;SDS011;17579;42.690;2.586;2023-01-15T00:11:19;7.05;;;3.35;;
30872;SDS011;17579;42.690;2.586;2023-01-15T00:13:45;6.30;;;3.28;;
30872;SDS011;17579;42.690;2.586;2023-01-15T00:16:18;7.75;;;3.05;;
30872;SDS011;17579;42.690;2.586;2023-01-15T00:19:05;4.38;;;2.78;;
30872;SDS011;17579;42.690;2.586;2023-01-15T00:21:32;3.58;;;2.80;;
30872;SDS011;17579;42.690;2.586;2023-01-15T00:23:58;4.20;;;2.72;;
30872;SDS011;17579;42.690;2.586;2023-01-15T00:26:36;5.97;;;2.67;;
30872;SDS011;17579;42.690;2.586;2023-01-15T00:29:14;4.15;;;2.78;;
30872;SDS011;17579;42.690;2.586;2023-01-15T00:31:41;6.93;;;3.05;;
30872;SDS011;17579;42.690;2.586;2023-01-15T00:34:08;9.70;;;3.13;;
30872;SDS011;17579;42.690;2.586;2023-01-15T00:36:33;6.35;;;3.00;;
30872;SDS011;17579;42.690;2.586;2023-01-15T00:39:02;7.00;;;3.15;;
30872;SDS011;17579;42.690;2.586;2023-01-15T00:41:28;6.13;;;2.70;;
30872;SDS011;17579;42.690;2.586;2023-01-15T00:43:54;5.20;;;3.20;;
30872;SDS011;17579;42.690;2.586;2023-01-15T00:46:21;7.78;;;3.60;;
30872;SDS011;17579;42.690;2.586;2023-01-15T00:48:47;5.70;;;3.72;;
30872;SDS011;17579;42.690;2.586;2023-01-15T00:51:13;9.68;;;4.90;;
30872;SDS011;17579;42.690;2.586;2023-01-15T00:53:38;8.20;;;4.10;;
30872;SDS011;17579;42.690;2.586;2023-01-15T00:56:04;7.50;;;4.95;;
30872;SDS011;17579;42.690;2.586;2023-01-15T00:58:30;10.38;;;5.15;;
30872;SDS011;17579;42.690;2.586;2023-01-15T01:00:56;8.63;;;5.80;;
30872;SDS011;17579;42.690;2.586;2023-01-15T01:03:22;9.98;;;6.00;;
30872;SDS011;17579;42.690;2.586;2023-01-15T01:05:48;8.10;;;6.07;;
30872;SDS011;17579;42.690;2.586;2023-01-15T01:08:15;7.72;;;5.13;;
30872;SDS011;17579;42.690;2.586;2023-01-15T01:10:41;8.93;;;6.18;;
30872;SDS011;17579;42.690;2.586;2023-01-15T01:13:07;8.30;;;5.45;;
30872;SDS011;17579;42.690;2.586;2023-01-15T01:15:33;9.07;;;5.45;;
30872;SDS011;17579;42.690;2.586;2023-01-15T01:18:00;6.78;;;5.45;;
30872;SDS011;17579;42.690;2.586;2023-01-15T01:20:26;7.13;;;4.53;;
30872;SDS011;17579;42.690;2.586;2023-01-15T01:22:53;7.88;;;5.38;;
30872;SDS011;17579;42.690;2.586;2023-01-15T01:25:19;7.00;;;4.68;;
30872;SDS011;17579;42.690;2.586;2023-01-15T01:27:45;5.38;;;4.25;;
30872;SDS011;17579;42.690;2.586;2023-01-15T01:30:14;6.10;;;4.80;;
30872;SDS011;17579;42.690;2.586;2023-01-15T01:32:43;6.05;;;4.45;;
30872;SDS011;17579;42.690;2.586;2023-01-15T01:35:09;8.65;;;4.53;;
30872;SDS011;17579;42.690;2.586;2023-01-15T01:37:35;7.10;;;4.03;;
30872;SDS011;17579;42.690;2.586;2023-01-15T01:40:00;5.18;;;3.55;;
30872;SDS011;17579;42.690;2.586;2023-01-15T01:42:26;5.78;;;3.67;;
30872;SDS011;17579;42.690;2.586;2023-01-15T01:47:28;4.80;;;3.45;;
30872;SDS011;17579;42.690;2.586;2023-01-15T01:49:59;10.07;;;3.92;;
30872;SDS011;17579;42.690;2.586;2023-01-15T01:52:31;7.88;;;3.50;;
30872;SDS011;17579;42.690;2.586;2023-01-15T01:55:01;9.43;;;3.92;;
30872;SDS011;17579;42.690;2.586;2023-01-15T01:57:28;5.85;;;3.95;;
30872;SDS011;17579;42.690;2.586;2023-01-15T01:59:54;6.55;;;3.60;;
30872;SDS011;17579;42.690;2.586;2023-01-15T02:02:21;5.15;;;2.75;;
30872;SDS011;17579;42.690;2.586;2023-01-15T02:04:47;5.60;;;3.47;;
30872;SDS011;17579;42.690;2.586;2023-01-15T02:07:13;8.10;;;3.75;;
30872;SDS011;17579;42.690;2.586;2023-01-15T02:09:39;5.82;;;3.28;;
30872;SDS011;17579;42.690;2.586;2023-01-15T02:12:08;8.98;;;3.90;;
30872;SDS011;17579;42.690;2.586;2023-01-15T02:14:49;8.18;;;4.00;;
30872;SDS011;17579;42.690;2.586;2023-01-15T02:17:25;5.75;;;3.63;;
30872;SDS011;17579;42.690;2.586;2023-01-15T02:22:57;7.53;;;4.10;;
30872;SDS011;17579;42.690;2.586;2023-01-15T02:25:53;10.32;;;4.82;;
30872;SDS011;17579;42.690;2.586;2023-01-15T02:28:33;7.90;;;4.10;;
30872;SDS011;17579;42.690;2.586;2023-01-15T02:31:14;11.40;;;5.85;;
30872;SDS011;17579;42.690;2.586;2023-01-15T02:36:46;9.50;;;5.53;;
30872;SDS011;17579;42.690;2.586;2023-01-15T02:39:17;7.03;;;5.03;;
30872;SDS011;17579;42.690;2.586;2023-01-15T02:41:46;10.15;;;5.22;;
30872;SDS011;17579;42.690;2.586;2023-01-15T02:44:16;10.45;;;4.85;;
30872;SDS011;17579;42.690;2.586;2023-01-15T02:46:46;8.55;;;4.18;;
30872;SDS011;17579;42.690;2.586;2023-01-15T02:49:14;7.70;;;4.65;;
30872;SDS011;17579;42.690;2.586;2023-01-15T02:51:44;8.55;;;4.68;;
30872;SDS011;17579;42.690;2.586;2023-01-15T02:54:16;8.35;;;4.22;;
30872;SDS011;17579;42.690;2.586;2023-01-15T02:56:44;7.95;;;4.50;;
30872;SDS011;17579;42.690;2.586;2023-01-15T02:59:14;10.00;;;5.47;;
30872;SDS011;17579;42.690;2.586;2023-01-15T03:01:47;7.97;;;5.30;;
30872;SDS011;17579;42.690;2.586;2023-01-15T03:04:21;7.25;;;5.20;;
30872;SDS011;17579;42.690;2.586;2023-01-15T03:09:53;8.32;;;5.35;;
30872;SDS011;17579;42.690;2.586;2023-01-15T03:12:28;6.90;;;5.45;;
30872;SDS011;17579;42.690;2.586;2023-01-15T03:15:21;11.25;;;5.22;;
30872;SDS011;17579;42.690;2.586;2023-01-15T03:18:03;10.05;;;4.93;;
30872;SDS011;17579;42.690;2.586;2023-01-15T03:20:30;7.50;;;4.63;;
30872;SDS011;17579;42.690;2.586;2023-01-15T03:23:02;7.70;;;4.70;;
30872;SDS011;17579;42.690;2.586;2023-01-15T03:25:34;7.22;;;5.05;;
30872;SDS011;17579;42.690;2.586;2023-01-15T03:28:04;8.20;;;5.28;;
30872;SDS011;17579;42.690;2.586;2023-01-15T03:30:30;11.75;;;6.25;;
30872;SDS011;17579;42.690;2.586;2023-01-15T03:32:57;10.90;;;5.38;;
30872;SDS011;17579;42.690;2.586;2023-01-15T03:38:23;8.02;;;5.30;;
30872;SDS011;17579;42.690;2.586;2023-01-15T03:47:08;8.80;;;5.43;;
30872;SDS011;17579;42.690;2.586;2023-01-15T03:50:09;9.35;;;6.38;;
30872;SDS011;17579;42.690;2.586;2023-01-15T03:52:47;9.05;;;5.32;;
30872;SDS011;17579;42.690;2.586;2023-01-15T03:55:26;8.25;;;5.90;;
30872;SDS011;17579;42.690;2.586;2023-01-15T03:58:24;9.75;;;6.20;;
30872;SDS011;17579;42.690;2.586;2023-01-15T04:00:54;12.95;;;6.63;;
30872;SDS011;17579;42.690;2.586;2023-01-15T04:03:23;10.40;;;5.97;;
30872;SDS011;17579;42.690;2.586;2023-01-15T04:05:52;11.90;;;6.35;;
30872;SDS011;17579;42.690;2.586;2023-01-15T04:08:21;10.13;;;6.00;;
30872;SDS011;17579;42.690;2.586;2023-01-15T04:10:51;12.10;;;6.68;;
30872;SDS011;17579;42.690;2.586;2023-01-15T04:13:21;9.60;;;6.10;;
30872;SDS011;17579;42.690;2.586;2023-01-15T04:15:46;9.57;;;6.05;;
30872;SDS011;17579;42.690;2.586;2023-01-15T04:18:12;8.80;;;6.07;;
30872;SDS011;17579;42.690;2.586;2023-01-15T04:20:38;11.10;;;6.90;;
30872;SDS011;17579;42.690;2.586;2023-01-15T04:23:04;9.70;;;7.22;;
30872;SDS011;17579;42.690;2.586;2023-01-15T04:25:30;10.95;;;7.30;;
30872;SDS011;17579;42.690;2.586;2023-01-15T04:27:55;10.30;;;7.00;;
30872;SDS011;17579;42.690;2.586;2023-01-15T04:30:21;10.95;;;6.68;;
30872;SDS011;17579;42.690;2.586;2023-01-15T04:32:47;12.38;;;6.60;;
30872;SDS011;17579;42.690;2.586;2023-01-15T04:35:14;10.77;;;7.70;;
30872;SDS011;17579;42.690;2.586;2023-01-15T04:37:40;13.63;;;7.28;;
30872;SDS011;17579;42.690;2.586;2023-01-15T04:40:06;10.73;;;7.00;;
30872;SDS011;17579;42.690;2.586;2023-01-15T04:42:33;14.23;;;7.68;;
30872;SDS011;17579;42.690;2.586;2023-01-15T04:45:11;11.85;;;7.57;;
30872;SDS011;17579;42.690;2.586;2023-01-15T04:47:36;9.90;;;7.07;;
30872;SDS011;17579;42.690;2.586;2023-01-15T04:50:02;12.00;;;7.30;;
30872;SDS011;17579;42.690;2.586;2023-01-15T04:52:27;10.68;;;6.88;;
30872;SDS011;17579;42.690;2.586;2023-01-15T04:54:53;10.68;;;7.25;;
30872;SDS011;17579;42.690;2.586;2023-01-15T04:57:19;11.07;;;7.75;;
30872;SDS011;17579;42.690;2.586;2023-01-15T04:59:45;12.77;;;8.25;;
30872;SDS011;17579;42.690;2.586;2023-01-15T05:02:10;15.48;;;9.20;;
30872;SDS011;17579;42.690;2.586;2023-01-15T05:04:36;23.75;;;10.40;;
30872;SDS011;17579;42.690;2.586;2023-01-15T05:07:02;17.13;;;9.07;;
30872;SDS011;17579;42.690;2.586;2023-01-15T05:09:29;17.27;;;9.48;;
30872;SDS011;17579;42.690;2.586;2023-01-15T05:11:55;19.02;;;9.65;;
30872;SDS011;17579;42.690;2.586;2023-01-15T05:14:20;19.20;;;9.25;;
30872;SDS011;17579;42.690;2.586;2023-01-15T05:16:46;18.15;;;9.50;;
30872;SDS011;17579;42.690;2.586;2023-01-15T05:19:11;17.23;;;8.93;;
30872;SDS011;17579;42.690;2.586;2023-01-15T05:21:41;14.23;;;8.90;;
30872;SDS011;17579;42.690;2.586;2023-01-15T05:24:09;10.07;;;7.60;;
30872;SDS011;17579;42.690;2.586;2023-01-15T05:26:40;10.32;;;7.38;;
30872;SDS011;17579;42.690;2.586;2023-01-15T05:29:06;8.60;;;6.30;;
30872;SDS011;17579;42.690;2.586;2023-01-15T05:31:35;7.95;;;6.07;;
30872;SDS011;17579;42.690;2.586;2023-01-15T05:34:01;8.80;;;5.93;;
30872;SDS011;17579;42.690;2.586;2023-01-15T05:36:28;7.43;;;4.88;;
30872;SDS011;17579;42.690;2.586;2023-01-15T05:38:55;7.63;;;5.00;;
30872;SDS011;17579;42.690;2.586;2023-01-15T05:41:23;9.38;;;4.90;;
30872;SDS011;17579;42.690;2.586;2023-01-15T05:44:04;6.32;;;4.80;;
30872;SDS011;17579;42.690;2.586;2023-01-15T05:46:32;5.07;;;4.10;;
30872;SDS011;17579;42.690;2.586;2023-01-15T05:48:59;7.57;;;4.22;;
30872;SDS011;17579;42.690;2.586;2023-01-15T05:51:28;5.85;;;4.20;;
30872;SDS011;17579;42.690;2.586;2023-01-15T05:53:55;8.38;;;4.40;;
30872;SDS011;17579;42.690;2.586;2023-01-15T05:56:22;6.90;;;4.47;;
30872;SDS011;17579;42.690;2.586;2023-01-15T05:58:47;8.68;;;5.82;;
30872;SDS011;17579;42.690;2.586;2023-01-15T06:01:13;8.73;;;5.55;;
30872;SDS011;17579;42.690;2.586;2023-01-15T06:03:39;7.85;;;5.10;;
30872;SDS011;17579;42.690;2.586;2023-01-15T06:06:05;7.88;;;4.60;;
30872;SDS011;17579;42.690;2.586;2023-01-15T06:08:34;7.78;;;5.10;;
30872;SDS011;17579;42.690;2.586;2023-01-15T06:11:02;7.40;;;4.72;;
30872;SDS011;17579;42.690;2.586;2023-01-15T06:13:31;6.45;;;5.10;;
30872;SDS011;17579;42.690;2.586;2023-01-15T06:15:58;9.48;;;4.85;;
30872;SDS011;17579;42.690;2.586;2023-01-15T06:18:24;7.47;;;5.20;;
30872;SDS011;17579;42.690;2.586;2023-01-15T06:20:49;6.40;;;4.20;;
30872;SDS011;17579;42.690;2.586;2023-01-15T06:23:16;9.60;;;5.25;;
30872;SDS011;17579;42.690;2.586;2023-01-15T06:25:43;10.55;;;5.80;;
30872;SDS011;17579;42.690;2.586;2023-01-15T06:28:09;10.45;;;5.00;;
30872;SDS011;17579;42.690;2.586;2023-01-15T06:30:36;8.02;;;5.18;;
30872;SDS011;17579;42.690;2.586;2023-01-15T06:33:03;9.57;;;4.95;;
30872;SDS011;17579;42.690;2.586;2023-01-15T06:35:29;6.13;;;4.50;;
30872;SDS011;17579;42.690;2.586;2023-01-15T06:37:55;8.55;;;5.20;;
30872;SDS011;17579;42.690;2.586;2023-01-15T06:40:21;8.15;;;5.00;;
30872;SDS011;17579;42.690;2.586;2023-01-15T06:42:47;5.95;;;4.43;;
30872;SDS011;17579;42.690;2.586;2023-01-15T06:45:25;8.27;;;4.63;;
30872;SDS011;17579;42.690;2.586;2023-01-15T06:48:13;8.68;;;5.28;;
30872;SDS011;17579;42.690;2.586;2023-01-15T06:50:38;6.97;;;4.93;;
30872;SDS011;17579;42.690;2.586;2023-01-15T06:53:04;7.80;;;5.63;;
30872;SDS011;17579;42.690;2.586;2023-01-15T06:55:30;12.00;;;6.18;;
30872;SDS011;17579;42.690;2.586;2023-01-15T06:57:55;8.63;;;5.13;;
30872;SDS011;17579;42.690;2.586;2023-01-15T07:00:21;10.40;;;4.93;;
30872;SDS011;17579;42.690;2.586;2023-01-15T07:02:47;6.43;;;5.30;;
30872;SDS011;17579;42.690;2.586;2023-01-15T07:05:14;10.77;;;5.85;;
30872;SDS011;17579;42.690;2.586;2023-01-15T07:07:40;9.50;;;6.38;;
30872;SDS011;17579;42.690;2.586;2023-01-15T07:10:06;8.60;;;5.90;;
30872;SDS011;17579;42.690;2.586;2023-01-15T07:12:33;7.30;;;5.57;;
30872;SDS011;17579;42.690;2.586;2023-01-15T07:14:59;8.43;;;5.85;;
30872;SDS011;17579;42.690;2.586;2023-01-15T07:17:24;11.15;;;5.78;;
30872;SDS011;17579;42.690;2.586;2023-01-15T07:19:50;6.68;;;5.22;;
30872;SDS011;17579;42.690;2.586;2023-01-15T07:22:15;7.18;;;5.45;;
30872;SDS011;17579;42.690;2.586;2023-01-15T07:24:41;8.43;;;5.20;;
30872;SDS011;17579;42.690;2.586;2023-01-15T07:27:06;6.15;;;4.07;;
30872;SDS011;17579;42.690;2.586;2023-01-15T07:29:32;6.40;;;4.95;;
30872;SDS011;17579;42.690;2.586;2023-01-15T07:31:58;8.60;;;4.72;;
30872;SDS011;17579;42.690;2.586;2023-01-15T07:34:23;7.05;;;4.97;;
30872;SDS011;17579;42.690;2.586;2023-01-15T07:36:49;8.23;;;4.03;;
30872;SDS011;17579;42.690;2.586;2023-01-15T07:39:14;4.80;;;3.20;;
30872;SDS011;17579;42.690;2.586;2023-01-15T07:41:41;2.70;;;1.40;;
30872;SDS011;17579;42.690;2.586;2023-01-15T07:44:18;1.50;;;1.05;;
30872;SDS011;17579;42.690;2.586;2023-01-15T07:46:56;2.83;;;1.00;;
30872;SDS011;17579;42.690;2.586;2023-01-15T07:49:34;2.85;;;1.10;;
30872;SDS011;17579;42.690;2.586;2023-01-15T07:52:11;0.80;;;0.70;;
30872;SDS011;17579;42.690;2.586;2023-01-15T07:54:38;1.10;;;1.00;;
30872;SDS011;17579;42.690;2.586;2023-01-15T07:57:03;0.90;;;0.80;;
30872;SDS011;17579;42.690;2.586;2023-01-15T07:59:30;1.30;;;0.95;;
30872;SDS011;17579;42.690;2.586;2023-01-15T08:01:56;1.63;;;1.30;;
30872;SDS011;17579;42.690;2.586;2023-01-15T08:04:21;1.75;;;1.00;;
30872;SDS011;17579;42.690;2.586;2023-01-15T08:06:47;0.80;;;0.80;;
30872;SDS011;17579;42.690;2.586;2023-01-15T08:09:12;1.80;;;1.20;;
30872;SDS011;17579;42.690;2.586;2023-01-15T08:11:38;1.35;;;1.00;;
30872;SDS011;17579;42.690;2.586;2023-01-15T08:14:15;1.15;;;1.05;;
30872;SDS011;17579;42.690;2.586;2023-01-15T08:16:53;1.13;;;1.00;;
30872;SDS011;17579;42.690;2.586;2023-01-15T08:19:18;1.33;;;0.90;;
30872;SDS011;17579;42.690;2.586;2023-01-15T08:21:44;1.48;;;1.15;;
30872;SDS011;17579;42.690;2.586;2023-01-15T08:24:10;1.65;;;1.15;;
30872;SDS011;17579;42.690;2.586;2023-01-15T08:26:35;1.10;;;1.00;;
30872;SDS011;17579;42.690;2.586;2023-01-15T08:29:01;2.65;;;0.90;;
30872;SDS011;17579;42.690;2.586;2023-01-15T08:31:26;1.25;;;1.13;;
30872;SDS011;17579;42.690;2.586;2023-01-15T08:33:52;1.88;;;1.20;;
30872;SDS011;17579;42.690;2.586;2023-01-15T08:36:17;2.05;;;1.10;;
30872;SDS011;17579;42.690;2.586;2023-01-15T08:38:43;1.75;;;1.13;;
30872;SDS011;17579;42.690;2.586;2023-01-15T08:41:09;1.60;;;1.00;;
30872;SDS011;17579;42.690;2.586;2023-01-15T08:43:34;1.90;;;1.13;;
30872;SDS011;17579;42.690;2.586;2023-01-15T08:46:01;1.90;;;1.00;;
30872;SDS011;17579;42.690;2.586;2023-01-15T08:48:29;1.90;;;1.00;;
30872;SDS011;17579;42.690;2.586;2023-01-15T08:50:56;1.00;;;0.82;;
30872;SDS011;17579;42.690;2.586;2023-01-15T08:53:24;4.57;;;1.00;;
30872;SDS011;17579;42.690;2.586;2023-01-15T08:55:50;1.08;;;0.70;;
30872;SDS011;17579;42.690;2.586;2023-01-15T08:58:16;1.98;;;1.00;;
30872;SDS011;17579;42.690;2.586;2023-01-15T09:00:42;2.08;;;1.13;;
30872;SDS011;17579;42.690;2.586;2023-01-15T09:03:08;1.20;;;0.50;;
30872;SDS011;17579;42.690;2.586;2023-01-15T09:05:35;0.40;;;0.40;;
30872;SDS011;17579;42.690;2.586;2023-01-15T09:08:02;0.50;;;0.50;;
30872;SDS011;17579;42.690;2.586;2023-01-15T09:10:29;0.38;;;0.38;;
30872;SDS011;17579;42.690;2.586;2023-01-15T09:12:57;0.70;;;0.30;;
30872;SDS011;17579;42.690;2.586;2023-01-15T09:15:24;0.50;;;0.50;;
30872;SDS011;17579;42.690;2.586;2023-01-15T09:17:49;1.05;;;0.52;;
30872;SDS011;17579;42.690;2.586;2023-01-15T09:20:15;0.30;;;0.30;;
30872;SDS011;17579;42.690;2.586;2023-01-15T09:22:40;0.73;;;0.20;;
30872;SDS011;17579;42.690;2.586;2023-01-15T09:25:07;0.10;;;0.10;;
30872;SDS011;17579;42.690;2.586;2023-01-15T09:27:33;0.45;;;0.20;;
30872;SDS011;17579;42.690;2.586;2023-01-15T09:30:02;0.00;;;0.00;;
30872;SDS011;17579;42.690;2.586;2023-01-15T09:32:28;2.10;;;0.20;;
30872;SDS011;17579;42.690;2.586;2023-01-15T09:34:54;0.10;;;0.10;;
30872;SDS011;17579;42.690;2.586;2023-01-15T09:37:20;0.00;;;0.00;;
30872;SDS011;17579;42.690;2.586;2023-01-15T09:39:46;0.10;;;0.10;;
30872;SDS011;17579;42.690;2.586;2023-01-15T09:53:59;0.00;;;0.00;;
30872;SDS011;17579;42.690;2.586;2023-01-15T09:56:38;0.28;;;0.10;;
30872;SDS011;17579;42.690;2.586;2023-01-15T09:59:13;0.00;;;0.00;;
30872;SDS011;17579;42.690;2.586;2023-01-15T10:01:44;0.80;;;0.00;;
30872;SDS011;17579;42.690;2.586;2023-01-15T10:07:05;0.43;;;0.25;;
30872;SDS011;17579;42.690;2.586;2023-01-15T10:09:47;1.00;;;0.00;;
30872;SDS011;17579;42.690;2.586;2023-01-15T10:12:25;0.03;;;0.03;;
30872;SDS011;17579;42.690;2.586;2023-01-15T10:18:12;0.80;;;0.10;;
30872;SDS011;17579;42.690;2.586;2023-01-15T10:32:18;0.00;;;0.00;;
30872;SDS011;17579;42.690;2.586;2023-01-15T10:34:57;0.10;;;0.00;;
30872;SDS011;17579;42.690;2.586;2023-01-15T10:40:50;1.88;;;0.00;;
30872;SDS011;17579;42.690;2.586;2023-01-15T10:46:23;0.00;;;0.00;;
30872;SDS011;17579;42.690;2.586;2023-01-15T10:48:55;0.00;;;0.00;;
30872;SDS011;17579;42.690;2.586;2023-01-15T11:00:08;0.20;;;0.00;;
30872;SDS011;17579;42.690;2.586;2023-01-15T11:02:42;0.10;;;0.00;;
30872;SDS011;17579;42.690;2.586;2023-01-15T11:05:15;0.00;;;0.00;;
30872;SDS011;17579;42.690;2.586;2023-01-15T11:07:45;0.00;;;0.00;;
30872;SDS011;17579;42.690;2.586;2023-01-15T11:10:14;0.10;;;0.10;;
30872;SDS011;17579;42.690;2.586;2023-01-15T11:12:50;0.80;;;0.10;;
30872;SDS011;17579;42.690;2.586;2023-01-15T11:15:30;0.52;;;0.05;;
30872;SDS011;17579;42.690;2.586;2023-01-15T11:18:10;0.10;;;0.10;;
30872;SDS011;17579;42.690;2.586;2023-01-15T11:20:51;0.00;;;0.00;;
30872;SDS011;17579;42.690;2.586;2023-01-15T11:23:18;0.05;;;0.00;;
30872;SDS011;17579;42.690;2.586;2023-01-15T11:25:55;0.73;;;0.00;;
30872;SDS011;17579;42.690;2.586;2023-01-15T11:28:33;0.00;;;0.00;;
30872;SDS011;17579;42.690;2.586;2023-01-15T11:31:05;0.40;;;0.08;;
30872;SDS011;17579;42.690;2.586;2023-01-15T11:33:32;0.00;;;0.00;;
30872;SDS011;17579;42.690;2.586;2023-01-15T11:35:59;0.00;;;0.00;;
30872;SDS011;17579;42.690;2.586;2023-01-15T11:38:29;0.10;;;0.10;;
30872;SDS011;17579;42.690;2.586;2023-01-15T11:41:15;0.00;;;0.00;;
30872;SDS011;17579;42.690;2.586;2023-01-15T11:43:52;0.32;;;0.00;;
30872;SDS011;17579;42.690;2.586;2023-01-15T11:46:31;0.03;;;0.00;;
30872;SDS011;17579;42.690;2.586;2023-01-15T11:49:09;0.05;;;0.00;;
30872;SDS011;17579;42.690;2.586;2023-01-15T11:51:47;0.00;;;0.00;;
30872;SDS011;17579;42.690;2.586;2023-01-15T11:54:13;0.10;;;0.08;;
30872;SDS011;17579;42.690;2.586;2023-01-15T11:56:43;0.10;;;0.10;;
30872;SDS011;17579;42.690;2.586;2023-01-15T11:59:11;0.20;;;0.00;;
30872;SDS011;17579;42.690;2.586;2023-01-15T12:01:44;0.00;;;0.00;;
30872;SDS011;17579;42.690;2.586;2023-01-15T12:07:02;0.30;;;0.00;;
30872;SDS011;17579;42.690;2.586;2023-01-15T12:15:32;0.00;;;0.00;;
30872;SDS011;17579;42.690;2.586;2023-01-15T12:18:32;0.00;;;0.00;;
30872;SDS011;17579;42.690;2.586;2023-01-15T12:30:22;1.13;;;0.08;;
30872;SDS011;17579;42.690;2.586;2023-01-15T12:35:50;0.00;;;0.00;;
30872;SDS011;17579;42.690;2.586;2023-01-15T12:41:14;0.10;;;0.05;;
30872;SDS011;17579;42.690;2.586;2023-01-15T12:43:48;0.00;;;0.00;;
30872;SDS011;17579;42.690;2.586;2023-01-15T12:46:32;0.00;;;0.00;;
30872;SDS011;17579;42.690;2.586;2023-01-15T12:49:18;0.00;;;0.00;;
30872;SDS011;17579;42.690;2.586;2023-01-15T12:52:07;0.00;;;0.00;;
30872;SDS011;17579;42.690;2.586;2023-01-15T12:54:39;0.00;;;0.00;;
30872;SDS011;17579;42.690;2.586;2023-01-15T12:57:14;0.00;;;0.00;;
30872;SDS011;17579;42.690;2.586;2023-01-15T12:59:48;0.00;;;0.00;;
30872;SDS011;17579;42.690;2.586;2023-01-15T13:07:52;0.00;;;0.00;;
30872;SDS011;17579;42.690;2.586;2023-01-15T13:10:25;1.25;;;0.00;;
30872;SDS011;17579;42.690;2.586;2023-01-15T13:12:54;0.00;;;0.00;;
30872;SDS011;17579;42.690;2.586;2023-01-15T13:15:32;0.00;;;0.00;;
30872;SDS011;17579;42.690;2.586;2023-01-15T13:18:09;0.10;;;0.10;;
30872;SDS011;17579;42.690;2.586;2023-01-15T13:20:55;0.00;;;0.00;;
30872;SDS011;17579;42.690;2.586;2023-01-15T13:26:27;0.00;;;0.00;;
30872;SDS011;17579;42.690;2.586;2023-01-15T13:29:21;0.17;;;0.08;;
30872;SDS011;17579;42.690;2.586;2023-01-15T13:35:05;0.00;;;0.00;;
30872;SDS011;17579;42.690;2.586;2023-01-15T13:37:39;0.10;;;0.10;;
30872;SDS011;17579;42.690;2.586;2023-01-15T13:40:22;0.10;;;0.10;;
30872;SDS011;17579;42.690;2.586;2023-01-15T13:42:55;0.00;;;0.00;;
30872;SDS011;17579;42.690;2.586;2023-01-15T13:45:37;0.45;;;0.03;;
30872;SDS011;17579;42.690;2.586;2023-01-15T13:48:14;0.00;;;0.00;;
30872;SDS011;17579;42.690;2.586;2023-01-15T13:50:52;0.00;;;0.00;;
30872;SDS011;17579;42.690;2.586;2023-01-15T13:53:29;0.00;;;0.00;;
30872;SDS011;17579;42.690;2.586;2023-01-15T13:56:05;0.00;;;0.00;;
30872;SDS011;17579;42.690;2.586;2023-01-15T13:58:36;0.00;;;0.00;;
30872;SDS011;17579;42.690;2.586;2023-01-15T14:03:53;0.45;;;0.05;;
30872;SDS011;17579;42.690;2.586;2023-01-15T14:06:41;0.00;;;0.00;;
30872;SDS011;17579;42.690;2.586;2023-01-15T14:09:12;0.00;;;0.00;;
30872;SDS011;17579;42.690;2.586;2023-01-15T14:29:22;0.00;;;0.00;;
30872;SDS011;17579;42.690;2.586;2023-01-15T14:32:11;0.05;;;0.05;;
30872;SDS011;17579;42.690;2.586;2023-01-15T14:34:55;0.10;;;0.10;;
30872;SDS011;17579;42.690;2.586;2023-01-15T14:37:32;1.38;;;0.00;;
30872;SDS011;17579;42.690;2.586;2023-01-15T14:40:16;0.15;;;0.10;;
30872;SDS011;17579;42.690;2.586;2023-01-15T14:42:51;0.10;;;0.10;;
30872;SDS011;17579;42.690;2.586;2023-01-15T14:45:38;0.95;;;0.10;;
30872;SDS011;17579;42.690;2.586;2023-01-15T14:51:11;0.03;;;0.00;;
30872;SDS011;17579;42.690;2.586;2023-01-15T14:56:28;0.17;;;0.10;;
30872;SDS011;17579;42.690;2.586;2023-01-15T15:02:04;0.88;;;0.10;;
30872;SDS011;17579;42.690;2.586;2023-01-15T15:04:43;0.22;;;0.13;;
30872;SDS011;17579;42.690;2.586;2023-01-15T15:07:13;0.28;;;0.10;;
30872;SDS011;17579;42.690;2.586;2023-01-15T15:09:43;0.20;;;0.20;;
30872;SDS011;17579;42.690;2.586;2023-01-15T15:12:20;0.65;;;0.20;;
30872;SDS011;17579;42.690;2.586;2023-01-15T15:20:52;0.10;;;0.10;;
30872;SDS011;17579;42.690;2.586;2023-01-15T15:23:44;0.10;;;0.10;;
30872;SDS011;17579;42.690;2.586;2023-01-15T15:26:28;0.77;;;0.17;;
30872;SDS011;17579;42.690;2.586;2023-01-15T15:29:04;0.10;;;0.10;;
30872;SDS011;17579;42.690;2.586;2023-01-15T15:34:27;0.10;;;0.10;;
30872;SDS011;17579;42.690;2.586;2023-01-15T15:36:59;0.20;;;0.20;;
30872;SDS011;17579;42.690;2.586;2023-01-15T15:42:27;0.68;;;0.20;;
30872;SDS011;17579;42.690;2.586;2023-01-15T15:45:15;0.65;;;0.20;;
30872;SDS011;17579;42.690;2.586;2023-01-15T15:47:55;0.30;;;0.30;;
30872;SDS011;17579;42.690;2.586;2023-01-15T15:50:33;1.02;;;0.30;;
30872;SDS011;17579;42.690;2.586;2023-01-15T15:53:00;0.40;;;0.30;;
30872;SDS011;17579;42.690;2.586;2023-01-15T15:55:35;0.20;;;0.20;;
30872;SDS011;17579;42.690;2.586;2023-01-15T15:58:04;0.10;;;0.10;;
30872;SDS011;17579;42.690;2.586;2023-01-15T16:00:33;0.30;;;0.20;;
30872;SDS011;17579;42.690;2.586;2023-01-15T16:03:06;0.50;;;0.25;;
30872;SDS011;17579;42.690;2.586;2023-01-15T16:05:40;0.60;;;0.22;;
30872;SDS011;17579;42.690;2.586;2023-01-15T16:08:06;0.43;;;0.40;;
30872;SDS011;17579;42.690;2.586;2023-01-15T16:10:41;0.90;;;0.10;;
30872;SDS011;17579;42.690;2.586;2023-01-15T16:13:10;2.00;;;0.55;;
30872;SDS011;17579;42.690;2.586;2023-01-15T16:15:42;0.73;;;0.30;;
30872;SDS011;17579;42.690;2.586;2023-01-15T16:18:18;1.13;;;0.35;;
30872;SDS011;17579;42.690;2.586;2023-01-15T16:20:53;2.08;;;0.63;;
30872;SDS011;17579;42.690;2.586;2023-01-15T16:23:22;2.35;;;0.73;;
30872;SDS011;17579;42.690;2.586;2023-01-15T16:28:45;1.25;;;0.40;;
30872;SDS011;17579;42.690;2.586;2023-01-15T16:31:18;1.63;;;0.77;;
30872;SDS011;17579;42.690;2.586;2023-01-15T16:33:44;2.00;;;0.43;;
30872;SDS011;17579;42.690;2.586;2023-01-15T16:36:11;2.92;;;0.88;;
30872;SDS011;17579;42.690;2.586;2023-01-15T16:38:38;1.55;;;0.50;;
30872;SDS011;17579;42.690;2.586;2023-01-15T16:41:14;3.17;;;0.77;;
30872;SDS011;17579;42.690;2.586;2023-01-15T16:43:53;1.00;;;0.47;;
30872;SDS011;17579;42.690;2.586;2023-01-15T16:46:23;2.15;;;0.88;;
30872;SDS011;17579;42.690;2.586;2023-01-15T16:49:16;1.23;;;0.82;;
30872;SDS011;17579;42.690;2.586;2023-01-15T16:51:57;4.25;;;1.02;;
30872;SDS011;17579;42.690;2.586;2023-01-15T16:59:58;2.67;;;0.80;;
30872;SDS011;17579;42.690;2.586;2023-01-15T17:02:27;1.33;;;0.60;;
30872;SDS011;17579;42.690;2.586;2023-01-15T17:04:59;1.30;;;0.50;;
30872;SDS011;17579;42.690;2.586;2023-01-15T17:07:31;1.15;;;0.65;;
30872;SDS011;17579;42.690;2.586;2023-01-15T17:10:01;1.70;;;0.50;;
30872;SDS011;17579;42.690;2.586;2023-01-15T17:12:32;2.88;;;0.57;;
30872;SDS011;17579;42.690;2.586;2023-01-15T17:18:00;2.00;;;0.47;;
30872;SDS011;17579;42.690;2.586;2023-01-15T17:20:43;0.70;;;0.50;;
30872;SDS011;17579;42.690;2.586;2023-01-15T17:23:10;0.77;;;0.50;;
30872;SDS011;17579;42.690;2.586;2023-01-15T17:25:37;1.60;;;0.40;;
30872;SDS011;17579;42.690;2.586;2023-01-15T17:28:03;1.95;;;0.55;;
30872;SDS011;17579;42.690;2.586;2023-01-15T17:30:29;1.90;;;0.68;;
30872;SDS011;17579;42.690;2.586;2023-01-15T17:32:56;1.35;;;0.40;;
30872;SDS011;17579;42.690;2.586;2023-01-15T17:35:23;3.10;;;0.68;;
30872;SDS011;17579;42.690;2.586;2023-01-15T17:37:52;2.20;;;0.68;;
30872;SDS011;17579;42.690;2.586;2023-01-15T17:40:18;1.63;;;0.80;;